createdAt,value
2018-12-19T00:01:56.431Z,16.00
2018-12-19T00:04:25.567Z,16.52
2018-12-19T00:06:55.384Z,16.70
2018-12-19T00:09:24.594Z,16.85
2018-12-19T00:11:54.404Z,17.02
2018-12-19T00:14:23.541Z,17.30
2018-12-19T00:16:52.844Z,18.23
2018-12-19T00:19:21.995Z,17.45
2018-12-19T00:21:51.210Z,15.65
2018-12-19T00:24:20.641Z,16.25
2018-12-19T00:26:49.752Z,16.32
2018-12-19T00:29:19.734Z,14.25
2018-12-19T00:31:49.025Z,15.45
2018-12-19T00:34:18.165Z,14.03
2018-12-19T00:36:47.760Z,17.52
2018-12-19T00:39:16.906Z,17.60
2018-12-19T00:41:46.345Z,14.65
2018-12-19T00:44:15.853Z,16.57
2018-12-19T00:46:45.176Z,16.15
2018-12-19T00:49:14.746Z,16.55
2018-12-19T00:51:43.965Z,17.45
2018-12-19T00:54:13.091Z,16.37
2018-12-19T00:56:42.211Z,14.85
2018-12-19T00:59:11.386Z,15.40
2018-12-19T01:01:40.504Z,13.80
2018-12-19T01:04:09.656Z,13.05
2018-12-19T01:06:38.864Z,12.45
2018-12-19T01:09:08.853Z,13.72
2018-12-19T01:11:38.355Z,13.55
2018-12-19T01:14:07.584Z,14.45
2018-12-19T01:16:36.712Z,16.00
2018-12-19T01:19:06.595Z,13.10
2018-12-19T01:21:35.715Z,14.23
2018-12-19T01:24:04.967Z,15.15
2018-12-19T01:26:34.617Z,15.70
2018-12-19T01:29:03.756Z,16.70
2018-12-19T01:31:32.968Z,14.70
2018-12-19T01:34:02.945Z,16.65
2018-12-19T01:36:32.152Z,13.10
2018-12-19T01:39:01.307Z,14.83
2018-12-19T01:41:30.469Z,14.60
2018-12-19T01:43:59.734Z,13.65
2018-12-19T01:46:29.068Z,13.53
2018-12-19T01:48:58.952Z,12.58
2018-12-19T01:51:32.617Z,13.85
2018-12-19T01:54:01.792Z,11.85
2018-12-19T01:56:31.080Z,11.78
2018-12-19T01:59:00.360Z,13.10
2018-12-19T02:01:29.480Z,12.13
2018-12-19T02:03:59.304Z,13.20
2018-12-19T02:06:28.455Z,12.80
2018-12-19T02:08:57.983Z,17.45
2018-12-19T02:11:27.146Z,13.90
2018-12-19T02:13:56.408Z,14.25
2018-12-19T02:16:25.697Z,14.58
2018-12-19T02:18:54.820Z,14.35
2018-12-19T02:21:24.359Z,12.13
2018-12-19T02:23:53.499Z,14.07
2018-12-19T02:26:22.684Z,12.98
2018-12-19T02:28:51.827Z,13.65
2018-12-19T02:31:20.948Z,12.15
2018-12-19T02:33:50.864Z,10.80
2018-12-19T02:36:20.689Z,12.33
2018-12-19T02:38:52.226Z,9.48
2018-12-19T02:41:21.417Z,11.30
2018-12-19T02:43:50.620Z,10.53
2018-12-19T02:46:19.731Z,9.48
2018-12-19T02:48:48.863Z,10.20
2018-12-19T02:51:18.404Z,10.03
2018-12-19T02:53:47.673Z,10.60
2018-12-19T02:56:16.828Z,9.98
2018-12-19T02:58:46.027Z,9.50
2018-12-19T03:01:15.221Z,9.88
2018-12-19T03:03:44.368Z,11.33
2018-12-19T03:06:13.604Z,9.15
2018-12-19T03:08:42.772Z,10.25
2018-12-19T03:11:13.455Z,9.50
2018-12-19T03:13:43.620Z,10.45
2018-12-19T03:16:12.820Z,10.63
2018-12-19T03:18:41.984Z,9.40
2018-12-19T03:21:11.350Z,10.70
2018-12-19T03:23:40.459Z,10.50
2018-12-19T03:26:09.847Z,10.32
2018-12-19T03:28:38.964Z,10.32
2018-12-19T03:31:08.089Z,8.70
2018-12-19T03:33:37.288Z,12.55
2018-12-19T03:36:06.456Z,10.58
2018-12-19T03:38:35.641Z,11.15
2018-12-19T03:41:05.772Z,11.68
2018-12-19T03:43:35.326Z,11.55
2018-12-19T03:46:05.369Z,10.28
2018-12-19T03:48:39.713Z,10.38
2018-12-19T03:51:08.897Z,12.40
2018-12-19T03:53:38.075Z,13.55
2018-12-19T03:56:07.403Z,11.22
2018-12-19T03:58:36.540Z,12.30
2018-12-19T04:01:05.673Z,10.18
2018-12-19T04:03:35.797Z,11.43
2018-12-19T04:06:05.804Z,11.05
2018-12-19T04:08:35.310Z,10.40
2018-12-19T04:11:05.280Z,12.80
2018-12-19T04:13:34.440Z,12.58
2018-12-19T04:16:03.663Z,13.22
2018-12-19T04:18:32.854Z,12.18
2018-12-19T04:21:02.005Z,12.63
2018-12-19T04:23:31.232Z,10.98
2018-12-19T04:26:00.576Z,12.90
2018-12-19T04:28:29.818Z,11.35
2018-12-19T04:30:59.606Z,10.23
2018-12-19T04:33:29.073Z,9.78
2018-12-19T04:35:59.296Z,11.12
2018-12-19T04:38:28.742Z,9.40
2018-12-19T04:40:58.033Z,9.85
2018-12-19T04:43:27.176Z,10.60
2018-12-19T04:45:56.384Z,10.43
2018-12-19T04:48:25.536Z,11.35
2018-12-19T04:50:54.696Z,11.40
2018-12-19T04:53:23.888Z,10.58
2018-12-19T04:55:53.100Z,11.12
2018-12-19T04:58:22.351Z,10.75
2018-12-19T05:00:51.664Z,12.82
2018-12-19T05:03:20.928Z,11.33
2018-12-19T05:05:50.248Z,11.75
2018-12-19T05:08:19.388Z,9.43
2018-12-19T05:10:48.517Z,10.23
2018-12-19T05:13:17.659Z,10.43
2018-12-19T05:15:47.321Z,11.90
2018-12-19T05:18:16.688Z,9.85
2018-12-19T05:20:46.104Z,12.45
2018-12-19T05:23:15.272Z,10.68
2018-12-19T05:25:45.360Z,11.80
2018-12-19T05:28:14.500Z,10.53
2018-12-19T05:30:43.661Z,10.88
2018-12-19T05:33:12.804Z,10.80
2018-12-19T05:35:41.962Z,11.25
2018-12-19T05:38:11.107Z,11.10
2018-12-19T05:40:40.340Z,9.98
2018-12-19T05:43:09.475Z,9.95
2018-12-19T05:45:39.039Z,9.53
2018-12-19T05:48:08.200Z,9.00
2018-12-19T05:50:37.350Z,9.58
2018-12-19T05:53:06.691Z,10.05
2018-12-19T05:55:35.817Z,9.28
2018-12-19T05:58:05.392Z,9.70
2018-12-19T06:00:34.644Z,10.28
2018-12-19T06:03:04.203Z,9.70
2018-12-19T06:05:33.354Z,9.70
2018-12-19T06:08:02.618Z,9.68
2018-12-19T06:10:31.739Z,9.55
2018-12-19T06:13:00.874Z,11.53
2018-12-19T06:15:30.652Z,10.35
2018-12-19T06:18:00.631Z,9.25
2018-12-19T06:20:29.759Z,8.30
2018-12-19T06:22:58.866Z,9.88
2018-12-19T06:25:27.977Z,8.38
2018-12-19T06:27:57.923Z,8.65
2018-12-19T06:30:29.217Z,8.68
2018-12-19T06:32:58.493Z,9.98
2018-12-19T06:35:28.376Z,9.45
2018-12-19T06:37:57.533Z,9.03
2018-12-19T06:40:32.471Z,9.48
2018-12-19T06:42:57.887Z,9.30
2018-12-19T06:45:27.028Z,10.43
2018-12-19T06:47:56.193Z,9.87
2018-12-19T06:50:25.484Z,9.60
2018-12-19T06:52:54.624Z,10.30
2018-12-19T06:55:24.044Z,11.15
2018-12-19T06:57:53.534Z,9.05
2018-12-19T07:00:29.973Z,10.93
2018-12-19T07:02:59.288Z,10.50
2018-12-19T07:05:28.487Z,10.05
2018-12-19T07:07:58.124Z,9.65
2018-12-19T07:10:27.339Z,9.78
2018-12-19T07:12:56.589Z,10.63
2018-12-19T07:15:25.730Z,10.10
2018-12-19T07:17:54.940Z,10.53
2018-12-19T07:20:24.248Z,10.03
2018-12-19T07:22:53.397Z,10.75
2018-12-19T07:25:22.532Z,9.00
2018-12-19T07:27:51.827Z,9.23
2018-12-19T07:30:20.994Z,9.95
2018-12-19T07:32:50.181Z,10.58
2018-12-19T07:35:19.396Z,10.40
2018-12-19T07:37:48.584Z,9.53
2018-12-19T07:40:18.235Z,10.65
2018-12-19T07:42:47.456Z,9.73
2018-12-19T07:45:16.655Z,10.72
2018-12-19T07:47:45.855Z,12.00
2018-12-19T07:50:15.927Z,10.35
2018-12-19T07:52:45.888Z,10.55
2018-12-19T07:55:15.040Z,9.73
2018-12-19T07:57:44.228Z,11.30
2018-12-19T08:00:13.411Z,11.33
2018-12-19T08:02:43.337Z,11.90
2018-12-19T08:05:12.544Z,12.05
2018-12-19T08:07:41.744Z,11.00
2018-12-19T08:10:12.407Z,12.10
2018-12-19T08:12:41.541Z,12.70
2018-12-19T08:15:11.184Z,12.80
2018-12-19T08:17:40.348Z,12.10
2018-12-19T08:20:10.224Z,16.23
2018-12-19T08:22:39.396Z,12.60
2018-12-19T08:25:09.448Z,14.15
2018-12-19T08:27:39.144Z,13.35
2018-12-19T08:30:10.608Z,11.38
2018-12-19T08:32:39.876Z,12.23
2018-12-19T08:35:09.096Z,11.68
2018-12-19T08:37:38.308Z,13.08
2018-12-19T08:40:08.728Z,18.30
2018-12-19T08:42:37.920Z,19.30
2018-12-19T08:45:07.860Z,12.73
2018-12-19T08:47:36.983Z,11.85
2018-12-19T08:50:10.024Z,10.85
2018-12-19T08:52:39.268Z,13.78
2018-12-19T08:55:09.298Z,10.03
2018-12-19T08:57:38.432Z,11.25
2018-12-19T09:00:12.052Z,11.60
2018-12-19T09:02:41.384Z,10.83
2018-12-19T09:05:10.702Z,10.88
2018-12-19T09:07:40.040Z,12.05
2018-12-19T09:10:10.001Z,11.97
2018-12-19T09:12:39.223Z,13.40
2018-12-19T09:15:09.044Z,12.35
2018-12-19T09:17:38.274Z,12.43
2018-12-19T09:22:47.280Z,12.40
2018-12-19T09:25:16.967Z,14.07
2018-12-19T09:27:46.191Z,12.87
2018-12-19T09:30:15.381Z,12.60
2018-12-19T09:32:44.632Z,12.03
2018-12-19T09:35:14.217Z,13.00
2018-12-19T09:37:43.376Z,12.78
2018-12-19T09:40:13.207Z,12.40
2018-12-19T09:42:42.371Z,11.43
2018-12-19T09:45:11.642Z,13.00
2018-12-19T09:47:40.795Z,12.93
2018-12-19T09:50:10.530Z,12.30
2018-12-19T09:52:39.681Z,11.23
2018-12-19T09:55:08.868Z,11.03
2018-12-19T09:57:38.440Z,12.90
2018-12-19T10:00:14.727Z,14.37
2018-12-19T10:02:43.903Z,14.67
2018-12-19T10:05:13.217Z,15.70
2018-12-19T10:07:42.360Z,12.23
2018-12-19T10:10:11.224Z,16.23
2018-12-19T10:12:40.516Z,19.95
2018-12-19T10:15:09.784Z,15.90
2018-12-19T10:17:41.095Z,17.75
2018-12-19T10:20:10.316Z,20.47
2018-12-19T10:22:39.506Z,14.70
2018-12-19T10:25:15.247Z,18.98
2018-12-19T10:27:44.955Z,18.77
2018-12-19T10:30:15.637Z,20.27
2018-12-19T10:35:26.304Z,18.75
2018-12-19T10:37:55.568Z,16.27
2018-12-19T10:40:24.916Z,18.60
2018-12-19T10:42:54.244Z,16.83
2018-12-19T10:45:23.515Z,16.67
2018-12-19T10:47:53.043Z,16.87
2018-12-19T10:50:22.295Z,17.20
2018-12-19T10:52:51.448Z,17.13
2018-12-19T10:55:20.641Z,18.90
2018-12-19T10:57:49.749Z,18.90
2018-12-19T11:00:24.379Z,19.60
2018-12-19T11:02:53.568Z,18.65
2018-12-19T11:05:22.760Z,16.43
2018-12-19T11:07:52.038Z,17.90
2018-12-19T11:10:21.342Z,15.60
2018-12-19T11:12:50.528Z,17.47
2018-12-19T11:15:19.699Z,17.43
2018-12-19T11:17:48.965Z,19.17
2018-12-19T11:20:18.109Z,16.57
2018-12-19T11:22:47.399Z,15.87
2018-12-19T11:25:17.002Z,15.70
2018-12-19T11:27:46.164Z,16.30
2018-12-19T11:30:16.317Z,17.57
2018-12-19T11:32:45.950Z,17.93
2018-12-19T11:35:15.238Z,17.10
2018-12-19T11:37:44.366Z,17.53
2018-12-19T11:40:13.653Z,17.40
2018-12-19T11:42:42.812Z,17.63
2018-12-19T11:45:12.028Z,19.07
2018-12-19T11:47:41.148Z,19.07
2018-12-19T11:50:10.512Z,21.00
2018-12-19T11:52:40.408Z,31.37
2018-12-19T11:55:09.704Z,17.57
2018-12-19T11:57:39.429Z,18.73
2018-12-19T12:00:11.601Z,17.43
2018-12-19T12:02:40.729Z,17.30
2018-12-19T12:05:09.896Z,16.90
2018-12-19T12:07:39.276Z,17.77
2018-12-19T12:10:09.591Z,17.10
2018-12-19T12:12:38.817Z,19.33
2018-12-19T12:15:08.629Z,18.33
2018-12-19T12:17:37.835Z,18.57
2018-12-19T12:20:08.922Z,18.10
2018-12-19T12:22:38.059Z,19.23
2018-12-19T12:25:07.392Z,19.67
2018-12-19T12:27:37.588Z,19.33
2018-12-19T12:30:08.392Z,21.90
2018-12-19T12:32:37.680Z,22.43
2018-12-19T12:35:08.299Z,20.87
2018-12-19T12:37:37.502Z,22.10
2018-12-19T12:40:08.292Z,19.60
2018-12-19T12:42:38.588Z,22.23
2018-12-19T12:45:07.950Z,20.27
2018-12-19T12:47:37.375Z,20.97
2018-12-19T12:50:07.086Z,24.90
2018-12-19T12:52:36.706Z,22.80
2018-12-19T12:55:06.419Z,19.77
2018-12-19T12:57:36.055Z,24.30
2018-12-19T13:00:07.088Z,22.80
2018-12-19T13:02:36.819Z,23.93
2018-12-19T13:05:06.445Z,23.07
2018-12-19T13:07:36.172Z,23.07
2018-12-19T13:10:07.271Z,23.07
2018-12-19T13:12:36.680Z,22.50
2018-12-19T13:15:06.797Z,19.63
2018-12-19T13:17:36.301Z,21.50
2018-12-19T13:20:06.328Z,22.40
2018-12-19T13:22:35.491Z,20.00
2018-12-19T13:25:06.179Z,20.20
2018-12-19T13:27:35.321Z,21.07
2018-12-19T13:30:06.076Z,19.00
2018-12-19T13:32:35.660Z,18.47
2018-12-19T13:35:05.184Z,19.90
2018-12-19T13:37:35.451Z,19.03
2018-12-19T13:40:05.595Z,17.67
2018-12-19T13:42:35.080Z,18.00
2018-12-19T13:45:05.711Z,17.67
2018-12-19T13:47:34.984Z,17.93
2018-12-19T13:50:04.789Z,17.63
2018-12-19T13:52:34.340Z,16.30
2018-12-19T13:55:03.779Z,17.97
2018-12-19T13:57:32.890Z,16.70
2018-12-19T14:00:02.817Z,15.97
2018-12-19T14:02:31.932Z,16.57
2018-12-19T14:05:01.741Z,18.50
2018-12-19T14:07:30.881Z,17.83
2018-12-19T14:10:00.194Z,17.93
2018-12-19T14:12:29.840Z,17.60
2018-12-19T14:14:59.065Z,18.33
2018-12-19T14:17:29.003Z,16.80
2018-12-19T14:19:59.167Z,18.17
2018-12-19T14:22:28.944Z,22.07
2018-12-19T14:24:58.376Z,18.20
2018-12-19T14:27:27.610Z,23.27
2018-12-19T14:29:56.752Z,16.83
2018-12-19T14:32:26.077Z,17.00
2018-12-19T14:34:55.864Z,25.47
2018-12-19T14:37:25.004Z,16.60
2018-12-19T14:39:55.893Z,15.77
2018-12-19T14:42:25.197Z,17.60
2018-12-19T14:44:55.322Z,20.27
2018-12-19T14:47:24.504Z,28.77
2018-12-19T14:49:53.698Z,19.73
2018-12-19T14:52:22.878Z,22.73
2018-12-19T14:54:52.899Z,24.20
2018-12-19T14:57:22.095Z,18.87
2018-12-19T14:59:51.683Z,23.47
2018-12-19T15:02:21.391Z,27.13
2018-12-19T15:04:50.517Z,24.83
2018-12-19T15:07:19.900Z,25.00
2018-12-19T15:09:49.079Z,24.63
2018-12-19T15:12:18.348Z,23.07
2018-12-19T15:14:47.516Z,20.00
2018-12-19T15:17:17.151Z,16.13
2018-12-19T15:19:46.412Z,19.40
2018-12-19T15:22:16.012Z,21.60
2018-12-19T15:24:45.192Z,21.37
2018-12-19T15:27:15.004Z,22.10
2018-12-19T15:29:44.138Z,18.30
2018-12-19T15:32:13.440Z,23.67
2018-12-19T15:34:43.274Z,18.47
2018-12-19T15:37:12.603Z,19.33
2018-12-19T15:39:42.004Z,20.50
2018-12-19T15:42:11.273Z,19.83
2018-12-19T15:44:40.551Z,23.50
2018-12-19T15:47:10.430Z,24.27
2018-12-19T15:49:39.768Z,24.07
2018-12-19T15:52:10.854Z,22.70
2018-12-19T15:54:40.329Z,22.73
2018-12-19T15:57:11.336Z,22.33
2018-12-19T15:59:40.468Z,21.40
2018-12-19T16:02:09.783Z,21.87
2018-12-19T16:04:38.900Z,21.50
2018-12-19T16:07:08.791Z,22.40
2018-12-19T16:09:37.922Z,24.17
2018-12-19T16:12:07.224Z,26.33
2018-12-19T16:14:36.361Z,23.97
2018-12-19T16:17:05.580Z,26.30
2018-12-19T16:19:34.689Z,27.67
2018-12-19T16:22:04.149Z,25.47
2018-12-19T16:24:33.320Z,24.80
2018-12-19T16:27:02.464Z,24.67
2018-12-19T16:29:32.572Z,27.30
2018-12-19T16:32:02.225Z,23.23
2018-12-19T16:34:31.445Z,25.90
2018-12-19T16:37:02.584Z,26.60
2018-12-19T16:39:31.884Z,27.27
2018-12-19T16:42:01.181Z,29.57
2018-12-19T16:44:30.957Z,28.40
2018-12-19T16:47:00.185Z,28.23
2018-12-19T16:49:29.940Z,25.87
2018-12-19T16:51:59.177Z,27.03
2018-12-19T16:54:28.360Z,24.27
2018-12-19T16:56:58.004Z,26.17
2018-12-19T16:59:27.308Z,29.80
2018-12-19T17:01:56.604Z,27.27
2018-12-19T17:04:26.474Z,24.20
2018-12-19T17:06:57.261Z,23.60
2018-12-19T17:09:26.739Z,24.17
2018-12-19T17:11:56.007Z,24.60
2018-12-19T17:14:25.809Z,22.80
2018-12-19T17:16:55.046Z,24.67
2018-12-19T17:19:24.963Z,25.90
2018-12-19T17:21:54.360Z,26.47
2018-12-19T17:27:09.353Z,27.97
2018-12-19T17:29:39.195Z,28.77
2018-12-19T17:32:09.828Z,27.73
2018-12-19T17:34:39.064Z,28.70
2018-12-19T17:37:08.184Z,26.50
2018-12-19T17:39:37.387Z,25.80
2018-12-19T17:42:06.636Z,23.67
2018-12-19T17:44:35.894Z,25.43
2018-12-19T17:47:05.119Z,25.67
2018-12-19T17:49:34.252Z,27.37
2018-12-19T17:52:03.380Z,27.17
2018-12-19T17:54:32.685Z,27.17
2018-12-19T17:57:02.327Z,26.50
2018-12-19T17:59:31.452Z,25.87
2018-12-19T18:02:00.712Z,24.70
2018-12-19T18:04:29.878Z,26.97
2018-12-19T18:06:59.012Z,24.93
2018-12-19T18:09:28.169Z,26.97
2018-12-19T18:11:57.388Z,25.43
2018-12-19T18:14:26.610Z,23.80
2018-12-19T18:16:55.825Z,23.27
2018-12-19T18:19:25.034Z,25.07
2018-12-19T18:21:54.405Z,26.97
2018-12-19T18:24:23.604Z,23.97
2018-12-19T18:26:53.484Z,26.40
2018-12-19T18:29:22.701Z,25.80
2018-12-19T18:31:51.886Z,25.07
2018-12-19T18:34:21.625Z,31.17
2018-12-19T18:36:51.079Z,25.40
2018-12-19T18:39:25.984Z,27.47
2018-12-19T18:41:51.856Z,23.23
2018-12-19T18:44:21.844Z,25.83
2018-12-19T18:46:51.168Z,21.77
2018-12-19T18:49:21.192Z,21.37
2018-12-19T18:51:50.417Z,21.93
2018-12-19T18:54:19.638Z,20.03
2018-12-19T18:56:48.847Z,20.27
2018-12-19T18:59:20.098Z,20.43
2018-12-19T19:01:50.140Z,20.00
2018-12-19T19:04:19.331Z,17.70
2018-12-19T19:06:49.126Z,18.90
2018-12-19T19:09:18.438Z,15.70
2018-12-19T19:11:48.118Z,17.27
2018-12-19T19:14:17.576Z,18.60
2018-12-19T19:16:46.748Z,20.93
2018-12-19T19:19:16.260Z,24.73
2018-12-19T19:21:45.424Z,24.27
2018-12-19T19:24:14.712Z,24.47
2018-12-19T19:26:43.948Z,20.77
2018-12-19T19:29:13.232Z,23.10
2018-12-19T19:31:42.617Z,26.93
2018-12-19T19:34:11.756Z,23.23
2018-12-19T19:36:41.624Z,26.33
2018-12-19T19:39:10.907Z,25.10
2018-12-19T19:41:40.089Z,25.00
2018-12-19T19:44:09.332Z,25.77
2018-12-19T19:46:38.864Z,26.23
2018-12-19T19:49:08.005Z,26.30
2018-12-19T19:51:39.077Z,27.93
2018-12-19T19:54:08.512Z,26.57
2018-12-19T19:56:38.576Z,28.47
2018-12-19T19:59:08.298Z,27.20
2018-12-19T20:01:37.708Z,26.37
2018-12-19T20:04:07.590Z,30.23
2018-12-19T20:06:37.023Z,28.47
2018-12-19T20:09:09.284Z,26.70
2018-12-19T20:11:38.719Z,24.63
2018-12-19T20:14:09.380Z,28.00
2018-12-19T20:16:44.764Z,27.47
2018-12-19T20:19:14.240Z,29.90
2018-12-19T20:21:43.462Z,21.63
2018-12-19T20:24:12.995Z,16.37
2018-12-19T20:26:42.355Z,15.20
2018-12-19T20:29:12.056Z,22.07
2018-12-19T20:31:41.427Z,19.87
2018-12-19T20:34:10.861Z,19.10
2018-12-19T20:36:41.127Z,25.50
2018-12-19T20:39:10.803Z,19.60
2018-12-19T20:41:40.096Z,21.77
2018-12-19T20:44:09.303Z,19.83
2018-12-19T20:46:38.676Z,21.10
2018-12-19T20:49:08.434Z,22.17
2018-12-19T20:51:38.046Z,19.10
2018-12-19T20:54:07.273Z,19.30
2018-12-19T20:56:37.484Z,18.87
2018-12-19T20:59:06.961Z,20.13
2018-12-19T21:01:36.285Z,18.40
2018-12-19T21:04:05.667Z,19.67
2018-12-19T21:06:35.274Z,18.70
2018-12-19T21:09:07.700Z,10.57
2018-12-19T21:11:37.668Z,8.33
2018-12-19T21:14:07.652Z,6.43
2018-12-19T21:16:42.551Z,6.30
2018-12-19T21:19:12.256Z,6.53
2018-12-19T21:21:42.123Z,5.70
2018-12-19T21:24:13.219Z,7.27
2018-12-19T21:26:42.404Z,8.00
2018-12-19T21:29:11.797Z,8.77
2018-12-19T21:31:41.291Z,8.97
2018-12-19T21:34:10.454Z,9.80
2018-12-19T21:36:40.128Z,10.10
2018-12-19T21:39:11.696Z,8.57
2018-12-19T21:41:41.039Z,7.80
2018-12-19T21:44:11.106Z,7.20
2018-12-19T21:46:41.007Z,7.63
2018-12-19T21:49:10.496Z,7.03
2018-12-19T21:51:40.060Z,7.43
2018-12-19T21:54:09.572Z,10.57
2018-12-19T21:56:38.774Z,10.63
2018-12-19T21:59:08.125Z,11.07
2018-12-19T22:01:37.704Z,10.80
2018-12-19T22:04:06.990Z,10.70
2018-12-19T22:06:36.193Z,9.40
2018-12-19T22:09:09.436Z,11.43
2018-12-19T22:11:38.726Z,14.20
2018-12-19T22:14:07.969Z,14.13
2018-12-19T22:16:42.479Z,13.60
2018-12-19T22:19:11.692Z,17.90
2018-12-19T22:21:40.940Z,13.27
2018-12-19T22:24:10.476Z,16.37
2018-12-19T22:26:40.028Z,15.00
2018-12-19T22:29:09.901Z,16.40
2018-12-19T22:31:39.212Z,14.97
2018-12-19T22:34:11.084Z,12.80
2018-12-19T22:36:42.813Z,13.40
2018-12-19T22:39:18.926Z,15.77
2018-12-19T22:41:48.622Z,14.37
2018-12-19T22:44:18.127Z,15.77
2018-12-19T22:46:47.534Z,13.33
2018-12-19T22:49:17.071Z,13.43
2018-12-19T22:51:46.687Z,13.53
2018-12-19T22:54:17.160Z,14.70
2018-12-19T22:56:46.825Z,14.07
2018-12-19T22:59:16.198Z,13.50
2018-12-19T23:03:53.806Z,14.47
2018-12-19T23:06:23.161Z,17.37
2018-12-19T23:08:52.398Z,13.90
2018-12-19T23:11:21.902Z,16.07
2018-12-19T23:13:51.218Z,18.07
2018-12-19T23:16:20.666Z,15.70
2018-12-19T23:18:49.963Z,15.10
2018-12-19T23:21:19.365Z,15.40
2018-12-19T23:23:48.647Z,15.13
2018-12-19T23:26:17.983Z,15.20
2018-12-19T23:28:47.789Z,13.83
2018-12-19T23:31:17.093Z,15.23
2018-12-19T23:33:46.372Z,16.40
2018-12-19T23:36:15.804Z,14.93
2018-12-19T23:38:45.125Z,14.30
2018-12-19T23:41:14.368Z,15.00
2018-12-19T23:43:43.631Z,14.70
2018-12-19T23:46:12.855Z,16.50
2018-12-19T23:48:42.143Z,16.37
2018-12-19T23:51:11.433Z,17.93
2018-12-19T23:53:40.703Z,17.70
2018-12-19T23:56:10.014Z,18.50
2018-12-19T23:58:39.605Z,18.60
